sensor_id;sensor_type;location;lat;lon;timestamp;P1;durP1;ratioP1;P2;durP2;ratioP2
5871;SDS011;2962;51.312;7.378;2023-05-07T00:01:02;2.60;;;2.50;;
5871;SDS011;2962;51.312;7.378;2023-05-07T00:03:27;2.53;;;2.43;;
5871;SDS011;2962;51.312;7.378;2023-05-07T00:05:52;3.00;;;2.73;;
5871;SDS011;2962;51.312;7.378;2023-05-07T00:08:18;1.80;;;1.80;;
5871;SDS011;2962;51.312;7.378;2023-05-07T00:10:44;4.30;;;2.53;;
5871;SDS011;2962;51.312;7.378;2023-05-07T00:13:09;2.53;;;2.43;;
5871;SDS011;2962;51.312;7.378;2023-05-07T00:15:34;2.20;;;2.10;;
5871;SDS011;2962;51.312;7.378;2023-05-07T00:18:00;2.30;;;2.30;;
5871;SDS011;2962;51.312;7.378;2023-05-07T00:20:25;2.40;;;2.40;;
5871;SDS011;2962;51.312;7.378;2023-05-07T00:22:51;2.17;;;2.17;;
5871;SDS011;2962;51.312;7.378;2023-05-07T00:25:16;2.33;;;2.23;;
5871;SDS011;2962;51.312;7.378;2023-05-07T00:27:41;2.43;;;2.23;;
5871;SDS011;2962;51.312;7.378;2023-05-07T00:30:07;7.73;;;2.90;;
5871;SDS011;2962;51.312;7.378;2023-05-07T00:32:33;2.73;;;2.50;;
5871;SDS011;2962;51.312;7.378;2023-05-07T00:34:59;1.97;;;1.97;;
5871;SDS011;2962;51.312;7.378;2023-05-07T00:37:24;2.40;;;2.30;;
5871;SDS011;2962;51.312;7.378;2023-05-07T00:39:50;2.30;;;2.00;;
5871;SDS011;2962;51.312;7.378;2023-05-07T00:42:15;2.33;;;2.13;;
5871;SDS011;2962;51.312;7.378;2023-05-07T00:44:41;2.07;;;2.00;;
5871;SDS011;2962;51.312;7.378;2023-05-07T00:47:06;1.97;;;1.90;;
5871;SDS011;2962;51.312;7.378;2023-05-07T00:49:41;1.60;;;1.50;;
5871;SDS011;2962;51.312;7.378;2023-05-07T00:52:09;2.53;;;1.90;;
5871;SDS011;2962;51.312;7.378;2023-05-07T00:54:38;2.13;;;2.03;;
5871;SDS011;2962;51.312;7.378;2023-05-07T00:57:05;1.90;;;1.80;;
5871;SDS011;2962;51.312;7.378;2023-05-07T00:59:32;1.73;;;1.63;;
5871;SDS011;2962;51.312;7.378;2023-05-07T01:01:58;2.00;;;1.90;;
5871;SDS011;2962;51.312;7.378;2023-05-07T01:04:24;4.73;;;1.67;;
5871;SDS011;2962;51.312;7.378;2023-05-07T01:06:50;3.20;;;1.83;;
5871;SDS011;2962;51.312;7.378;2023-05-07T01:09:16;1.90;;;1.80;;
5871;SDS011;2962;51.312;7.378;2023-05-07T01:11:42;1.83;;;1.73;;
5871;SDS011;2962;51.312;7.378;2023-05-07T01:14:08;1.23;;;1.23;;
5871;SDS011;2962;51.312;7.378;2023-05-07T01:16:34;1.23;;;1.07;;
5871;SDS011;2962;51.312;7.378;2023-05-07T01:19:00;1.83;;;1.70;;
5871;SDS011;2962;51.312;7.378;2023-05-07T01:21:26;2.43;;;1.80;;
5871;SDS011;2962;51.312;7.378;2023-05-07T01:23:52;1.93;;;1.67;;
5871;SDS011;2962;51.312;7.378;2023-05-07T01:26:20;6.77;;;1.70;;
5871;SDS011;2962;51.312;7.378;2023-05-07T01:28:46;3.47;;;1.67;;
5871;SDS011;2962;51.312;7.378;2023-05-07T01:31:12;1.73;;;1.60;;
5871;SDS011;2962;51.312;7.378;2023-05-07T01:33:39;3.43;;;1.73;;
5871;SDS011;2962;51.312;7.378;2023-05-07T01:36:06;1.37;;;1.37;;
5871;SDS011;2962;51.312;7.378;2023-05-07T01:38:33;1.50;;;1.50;;
5871;SDS011;2962;51.312;7.378;2023-05-07T01:41:01;1.67;;;1.67;;
5871;SDS011;2962;51.312;7.378;2023-05-07T01:43:28;1.70;;;1.60;;
5871;SDS011;2962;51.312;7.378;2023-05-07T01:45:54;1.20;;;1.20;;
5871;SDS011;2962;51.312;7.378;2023-05-07T01:48:20;1.60;;;1.60;;
5871;SDS011;2962;51.312;7.378;2023-05-07T01:50:46;1.40;;;1.40;;
5871;SDS011;2962;51.312;7.378;2023-05-07T01:53:12;1.90;;;1.90;;
5871;SDS011;2962;51.312;7.378;2023-05-07T01:55:38;2.30;;;1.60;;
5871;SDS011;2962;51.312;7.378;2023-05-07T01:58:03;4.23;;;1.57;;
5871;SDS011;2962;51.312;7.378;2023-05-07T02:00:29;1.67;;;1.67;;
5871;SDS011;2962;51.312;7.378;2023-05-07T02:02:54;1.63;;;1.63;;
5871;SDS011;2962;51.312;7.378;2023-05-07T02:05:20;1.30;;;1.30;;
5871;SDS011;2962;51.312;7.378;2023-05-07T02:07:45;1.47;;;1.37;;
5871;SDS011;2962;51.312;7.378;2023-05-07T02:10:11;1.87;;;1.77;;
5871;SDS011;2962;51.312;7.378;2023-05-07T02:12:36;1.70;;;1.60;;
5871;SDS011;2962;51.312;7.378;2023-05-07T02:15:01;1.60;;;1.50;;
5871;SDS011;2962;51.312;7.378;2023-05-07T02:17:27;1.50;;;1.50;;
5871;SDS011;2962;51.312;7.378;2023-05-07T02:19:52;1.30;;;1.30;;
5871;SDS011;2962;51.312;7.378;2023-05-07T02:22:18;2.20;;;1.50;;
5871;SDS011;2962;51.312;7.378;2023-05-07T02:24:43;1.90;;;1.80;;
5871;SDS011;2962;51.312;7.378;2023-05-07T02:27:09;1.50;;;1.40;;
5871;SDS011;2962;51.312;7.378;2023-05-07T02:29:34;1.43;;;1.33;;
5871;SDS011;2962;51.312;7.378;2023-05-07T02:32:00;1.57;;;1.57;;
5871;SDS011;2962;51.312;7.378;2023-05-07T02:34:25;1.57;;;1.50;;
5871;SDS011;2962;51.312;7.378;2023-05-07T02:36:50;1.60;;;1.60;;
5871;SDS011;2962;51.312;7.378;2023-05-07T02:39:16;5.50;;;1.57;;
5871;SDS011;2962;51.312;7.378;2023-05-07T02:41:41;1.47;;;1.47;;
5871;SDS011;2962;51.312;7.378;2023-05-07T02:44:07;2.10;;;1.20;;
5871;SDS011;2962;51.312;7.378;2023-05-07T02:46:32;4.60;;;1.60;;
5871;SDS011;2962;51.312;7.378;2023-05-07T02:48:57;1.80;;;1.80;;
5871;SDS011;2962;51.312;7.378;2023-05-07T02:51:22;1.83;;;1.43;;
5871;SDS011;2962;51.312;7.378;2023-05-07T02:53:48;1.77;;;1.67;;
5871;SDS011;2962;51.312;7.378;2023-05-07T02:56:13;6.00;;;1.20;;
5871;SDS011;2962;51.312;7.378;2023-05-07T02:58:39;2.03;;;1.50;;
5871;SDS011;2962;51.312;7.378;2023-05-07T03:01:04;1.90;;;1.77;;
5871;SDS011;2962;51.312;7.378;2023-05-07T03:03:30;1.80;;;1.70;;
5871;SDS011;2962;51.312;7.378;2023-05-07T03:05:55;2.20;;;1.60;;
5871;SDS011;2962;51.312;7.378;2023-05-07T03:08:21;1.87;;;1.77;;
5871;SDS011;2962;51.312;7.378;2023-05-07T03:10:46;3.60;;;1.60;;
5871;SDS011;2962;51.312;7.378;2023-05-07T03:13:12;1.53;;;1.53;;
5871;SDS011;2962;51.312;7.378;2023-05-07T03:15:37;3.97;;;2.50;;
5871;SDS011;2962;51.312;7.378;2023-05-07T03:18:02;1.60;;;1.50;;
5871;SDS011;2962;51.312;7.378;2023-05-07T03:20:28;2.20;;;2.00;;
5871;SDS011;2962;51.312;7.378;2023-05-07T03:22:53;1.60;;;1.60;;
5871;SDS011;2962;51.312;7.378;2023-05-07T03:25:18;1.63;;;1.60;;
5871;SDS011;2962;51.312;7.378;2023-05-07T03:27:44;1.93;;;1.80;;
5871;SDS011;2962;51.312;7.378;2023-05-07T03:30:09;1.60;;;1.50;;
5871;SDS011;2962;51.312;7.378;2023-05-07T03:32:35;1.80;;;1.80;;
5871;SDS011;2962;51.312;7.378;2023-05-07T03:35:01;1.50;;;1.50;;
5871;SDS011;2962;51.312;7.378;2023-05-07T03:37:27;1.20;;;1.20;;
5871;SDS011;2962;51.312;7.378;2023-05-07T03:39:52;3.83;;;1.57;;
5871;SDS011;2962;51.312;7.378;2023-05-07T03:42:18;2.43;;;1.50;;
5871;SDS011;2962;51.312;7.378;2023-05-07T03:44:43;2.43;;;2.23;;
5871;SDS011;2962;51.312;7.378;2023-05-07T03:47:08;1.70;;;1.60;;
5871;SDS011;2962;51.312;7.378;2023-05-07T03:49:35;1.40;;;1.40;;
5871;SDS011;2962;51.312;7.378;2023-05-07T03:52:00;1.70;;;1.70;;
5871;SDS011;2962;51.312;7.378;2023-05-07T03:54:26;2.13;;;1.90;;
5871;SDS011;2962;51.312;7.378;2023-05-07T03:56:51;2.03;;;1.93;;
5871;SDS011;2962;51.312;7.378;2023-05-07T03:59:16;1.80;;;1.43;;
5871;SDS011;2962;51.312;7.378;2023-05-07T04:01:41;1.70;;;1.60;;
5871;SDS011;2962;51.312;7.378;2023-05-07T04:04:07;2.57;;;1.70;;
5871;SDS011;2962;51.312;7.378;2023-05-07T04:06:32;1.47;;;1.47;;
5871;SDS011;2962;51.312;7.378;2023-05-07T04:08:57;1.27;;;1.17;;
5871;SDS011;2962;51.312;7.378;2023-05-07T04:11:23;1.47;;;1.37;;
5871;SDS011;2962;51.312;7.378;2023-05-07T04:13:48;2.00;;;1.80;;
5871;SDS011;2962;51.312;7.378;2023-05-07T04:16:13;1.90;;;1.43;;
5871;SDS011;2962;51.312;7.378;2023-05-07T04:18:39;1.70;;;1.60;;
5871;SDS011;2962;51.312;7.378;2023-05-07T04:21:04;3.23;;;1.57;;
5871;SDS011;2962;51.312;7.378;2023-05-07T04:23:29;1.70;;;1.70;;
5871;SDS011;2962;51.312;7.378;2023-05-07T04:25:55;2.50;;;2.00;;
5871;SDS011;2962;51.312;7.378;2023-05-07T04:28:20;1.70;;;1.70;;
5871;SDS011;2962;51.312;7.378;2023-05-07T04:30:46;1.87;;;1.80;;
5871;SDS011;2962;51.312;7.378;2023-05-07T04:33:11;2.33;;;1.97;;
5871;SDS011;2962;51.312;7.378;2023-05-07T04:35:37;1.90;;;1.90;;
5871;SDS011;2962;51.312;7.378;2023-05-07T04:38:02;3.43;;;1.83;;
5871;SDS011;2962;51.312;7.378;2023-05-07T04:40:27;1.80;;;1.70;;
5871;SDS011;2962;51.312;7.378;2023-05-07T04:42:52;1.40;;;1.40;;
5871;SDS011;2962;51.312;7.378;2023-05-07T04:45:18;1.40;;;1.40;;
5871;SDS011;2962;51.312;7.378;2023-05-07T04:47:43;1.20;;;1.20;;
5871;SDS011;2962;51.312;7.378;2023-05-07T04:50:09;1.70;;;1.70;;
5871;SDS011;2962;51.312;7.378;2023-05-07T04:52:35;1.47;;;1.47;;
5871;SDS011;2962;51.312;7.378;2023-05-07T04:55:01;1.57;;;1.40;;
5871;SDS011;2962;51.312;7.378;2023-05-07T04:57:27;1.60;;;1.60;;
5871;SDS011;2962;51.312;7.378;2023-05-07T04:59:53;1.70;;;1.60;;
5871;SDS011;2962;51.312;7.378;2023-05-07T05:02:19;1.60;;;1.57;;
5871;SDS011;2962;51.312;7.378;2023-05-07T05:04:44;2.53;;;1.90;;
5871;SDS011;2962;51.312;7.378;2023-05-07T05:07:09;1.60;;;1.60;;
5871;SDS011;2962;51.312;7.378;2023-05-07T05:09:35;1.53;;;1.50;;
5871;SDS011;2962;51.312;7.378;2023-05-07T05:12:00;1.50;;;1.40;;
5871;SDS011;2962;51.312;7.378;2023-05-07T05:14:25;2.53;;;1.20;;
5871;SDS011;2962;51.312;7.378;2023-05-07T05:16:51;1.23;;;1.23;;
5871;SDS011;2962;51.312;7.378;2023-05-07T05:19:16;5.93;;;1.50;;
5871;SDS011;2962;51.312;7.378;2023-05-07T05:21:41;1.43;;;1.43;;
5871;SDS011;2962;51.312;7.378;2023-05-07T05:24:07;3.67;;;1.20;;
5871;SDS011;2962;51.312;7.378;2023-05-07T05:26:32;1.50;;;1.40;;
5871;SDS011;2962;51.312;7.378;2023-05-07T05:28:57;1.90;;;1.40;;
5871;SDS011;2962;51.312;7.378;2023-05-07T05:31:23;1.47;;;1.47;;
5871;SDS011;2962;51.312;7.378;2023-05-07T05:33:48;1.73;;;1.63;;
5871;SDS011;2962;51.312;7.378;2023-05-07T05:36:13;1.27;;;1.17;;
5871;SDS011;2962;51.312;7.378;2023-05-07T05:38:39;1.50;;;1.40;;
5871;SDS011;2962;51.312;7.378;2023-05-07T05:41:05;1.40;;;1.40;;
5871;SDS011;2962;51.312;7.378;2023-05-07T05:43:30;2.13;;;1.30;;
5871;SDS011;2962;51.312;7.378;2023-05-07T05:45:56;1.30;;;1.30;;
5871;SDS011;2962;51.312;7.378;2023-05-07T05:48:21;1.60;;;1.50;;
5871;SDS011;2962;51.312;7.378;2023-05-07T05:50:47;1.40;;;1.30;;
5871;SDS011;2962;51.312;7.378;2023-05-07T05:53:13;2.00;;;1.90;;
5871;SDS011;2962;51.312;7.378;2023-05-07T05:55:38;1.27;;;1.27;;
5871;SDS011;2962;51.312;7.378;2023-05-07T05:58:03;2.37;;;1.80;;
5871;SDS011;2962;51.312;7.378;2023-05-07T06:00:29;5.10;;;1.47;;
5871;SDS011;2962;51.312;7.378;2023-05-07T06:02:54;3.20;;;1.57;;
5871;SDS011;2962;51.312;7.378;2023-05-07T06:05:20;1.20;;;1.20;;
5871;SDS011;2962;51.312;7.378;2023-05-07T06:07:45;2.73;;;1.10;;
5871;SDS011;2962;51.312;7.378;2023-05-07T06:10:10;1.07;;;1.07;;
5871;SDS011;2962;51.312;7.378;2023-05-07T06:12:36;1.63;;;1.63;;
5871;SDS011;2962;51.312;7.378;2023-05-07T06:15:01;1.27;;;1.27;;
5871;SDS011;2962;51.312;7.378;2023-05-07T06:17:26;1.90;;;1.80;;
5871;SDS011;2962;51.312;7.378;2023-05-07T06:19:52;1.57;;;1.57;;
5871;SDS011;2962;51.312;7.378;2023-05-07T06:22:17;2.00;;;1.27;;
5871;SDS011;2962;51.312;7.378;2023-05-07T06:24:43;1.20;;;1.10;;
5871;SDS011;2962;51.312;7.378;2023-05-07T06:27:08;1.30;;;1.30;;
5871;SDS011;2962;51.312;7.378;2023-05-07T06:29:33;1.13;;;1.10;;
5871;SDS011;2962;51.312;7.378;2023-05-07T06:32:06;1.37;;;1.37;;
5871;SDS011;2962;51.312;7.378;2023-05-07T06:34:32;1.10;;;1.10;;
5871;SDS011;2962;51.312;7.378;2023-05-07T06:36:58;1.60;;;1.60;;
5871;SDS011;2962;51.312;7.378;2023-05-07T06:39:23;1.40;;;1.27;;
5871;SDS011;2962;51.312;7.378;2023-05-07T06:41:48;2.97;;;1.17;;
5871;SDS011;2962;51.312;7.378;2023-05-07T06:44:14;3.07;;;1.50;;
5871;SDS011;2962;51.312;7.378;2023-05-07T06:46:40;4.43;;;1.20;;
5871;SDS011;2962;51.312;7.378;2023-05-07T06:49:06;1.00;;;1.00;;
5871;SDS011;2962;51.312;7.378;2023-05-07T06:51:31;1.63;;;1.53;;
5871;SDS011;2962;51.312;7.378;2023-05-07T06:53:56;2.10;;;1.13;;
5871;SDS011;2962;51.312;7.378;2023-05-07T06:56:21;2.20;;;1.23;;
5871;SDS011;2962;51.312;7.378;2023-05-07T06:58:47;1.93;;;1.20;;
5871;SDS011;2962;51.312;7.378;2023-05-07T07:01:13;0.97;;;0.97;;
5871;SDS011;2962;51.312;7.378;2023-05-07T07:03:38;1.80;;;1.00;;
5871;SDS011;2962;51.312;7.378;2023-05-07T07:06:03;0.97;;;0.77;;
5871;SDS011;2962;51.312;7.378;2023-05-07T07:08:29;1.20;;;1.20;;
5871;SDS011;2962;51.312;7.378;2023-05-07T07:10:54;1.60;;;1.17;;
5871;SDS011;2962;51.312;7.378;2023-05-07T07:13:19;1.20;;;1.10;;
5871;SDS011;2962;51.312;7.378;2023-05-07T07:15:45;1.10;;;1.10;;
5871;SDS011;2962;51.312;7.378;2023-05-07T07:18:10;1.20;;;1.20;;
5871;SDS011;2962;51.312;7.378;2023-05-07T07:20:35;2.23;;;1.10;;
5871;SDS011;2962;51.312;7.378;2023-05-07T07:23:01;1.23;;;1.23;;
5871;SDS011;2962;51.312;7.378;2023-05-07T07:25:26;3.17;;;1.00;;
5871;SDS011;2962;51.312;7.378;2023-05-07T07:27:51;2.00;;;0.97;;
5871;SDS011;2962;51.312;7.378;2023-05-07T07:30:16;5.57;;;1.00;;
5871;SDS011;2962;51.312;7.378;2023-05-07T07:32:42;1.60;;;1.50;;
5871;SDS011;2962;51.312;7.378;2023-05-07T07:35:08;1.07;;;1.07;;
5871;SDS011;2962;51.312;7.378;2023-05-07T07:37:33;1.00;;;1.00;;
5871;SDS011;2962;51.312;7.378;2023-05-07T07:39:59;1.70;;;0.70;;
5871;SDS011;2962;51.312;7.378;2023-05-07T07:42:24;1.60;;;1.50;;
5871;SDS011;2962;51.312;7.378;2023-05-07T07:44:50;2.40;;;1.17;;
5871;SDS011;2962;51.312;7.378;2023-05-07T07:47:15;1.13;;;1.13;;
5871;SDS011;2962;51.312;7.378;2023-05-07T07:49:40;2.47;;;1.00;;
5871;SDS011;2962;51.312;7.378;2023-05-07T07:52:06;0.87;;;0.87;;
5871;SDS011;2962;51.312;7.378;2023-05-07T07:54:31;1.23;;;1.23;;
5871;SDS011;2962;51.312;7.378;2023-05-07T07:56:57;1.97;;;1.30;;
5871;SDS011;2962;51.312;7.378;2023-05-07T07:59:22;0.90;;;0.90;;
5871;SDS011;2962;51.312;7.378;2023-05-07T08:01:48;1.90;;;1.80;;
5871;SDS011;2962;51.312;7.378;2023-05-07T08:04:15;1.47;;;1.47;;
5871;SDS011;2962;51.312;7.378;2023-05-07T08:06:41;1.57;;;1.50;;
5871;SDS011;2962;51.312;7.378;2023-05-07T08:09:07;0.87;;;0.83;;
5871;SDS011;2962;51.312;7.378;2023-05-07T08:11:33;1.40;;;1.30;;
5871;SDS011;2962;51.312;7.378;2023-05-07T08:13:58;1.70;;;1.00;;
5871;SDS011;2962;51.312;7.378;2023-05-07T08:16:24;1.40;;;1.27;;
5871;SDS011;2962;51.312;7.378;2023-05-07T08:18:49;1.07;;;0.80;;
5871;SDS011;2962;51.312;7.378;2023-05-07T08:21:15;1.00;;;1.00;;
5871;SDS011;2962;51.312;7.378;2023-05-07T08:23:40;1.67;;;0.80;;
5871;SDS011;2962;51.312;7.378;2023-05-07T08:26:05;0.77;;;0.77;;
5871;SDS011;2962;51.312;7.378;2023-05-07T08:28:32;2.63;;;0.90;;
5871;SDS011;2962;51.312;7.378;2023-05-07T08:30:58;0.80;;;0.80;;
5871;SDS011;2962;51.312;7.378;2023-05-07T08:33:25;0.90;;;0.90;;
5871;SDS011;2962;51.312;7.378;2023-05-07T08:35:50;0.90;;;0.90;;
5871;SDS011;2962;51.312;7.378;2023-05-07T08:38:15;4.13;;;1.37;;
5871;SDS011;2962;51.312;7.378;2023-05-07T08:40:41;1.63;;;1.43;;
5871;SDS011;2962;51.312;7.378;2023-05-07T08:43:06;1.70;;;1.60;;
5871;SDS011;2962;51.312;7.378;2023-05-07T08:45:32;2.83;;;2.63;;
5871;SDS011;2962;51.312;7.378;2023-05-07T08:47:59;1.80;;;1.80;;
5871;SDS011;2962;51.312;7.378;2023-05-07T08:50:27;1.70;;;1.70;;
5871;SDS011;2962;51.312;7.378;2023-05-07T08:52:53;2.87;;;2.47;;
5871;SDS011;2962;51.312;7.378;2023-05-07T08:55:18;3.50;;;2.00;;
5871;SDS011;2962;51.312;7.378;2023-05-07T08:57:44;3.20;;;2.07;;
5871;SDS011;2962;51.312;7.378;2023-05-07T09:00:09;1.30;;;1.30;;
5871;SDS011;2962;51.312;7.378;2023-05-07T09:02:36;1.40;;;1.30;;
5871;SDS011;2962;51.312;7.378;2023-05-07T09:05:01;1.30;;;1.30;;
5871;SDS011;2962;51.312;7.378;2023-05-07T09:07:27;1.70;;;1.60;;
5871;SDS011;2962;51.312;7.378;2023-05-07T09:09:53;5.50;;;2.40;;
5871;SDS011;2962;51.312;7.378;2023-05-07T09:12:20;1.30;;;1.30;;
5871;SDS011;2962;51.312;7.378;2023-05-07T09:14:46;2.13;;;1.83;;
5871;SDS011;2962;51.312;7.378;2023-05-07T09:17:12;1.20;;;1.20;;
5871;SDS011;2962;51.312;7.378;2023-05-07T09:19:37;1.20;;;1.20;;
5871;SDS011;2962;51.312;7.378;2023-05-07T09:22:03;1.57;;;1.47;;
5871;SDS011;2962;51.312;7.378;2023-05-07T09:24:30;1.17;;;1.10;;
5871;SDS011;2962;51.312;7.378;2023-05-07T09:27:00;1.43;;;1.43;;
5871;SDS011;2962;51.312;7.378;2023-05-07T09:29:27;1.03;;;1.03;;
5871;SDS011;2962;51.312;7.378;2023-05-07T09:31:55;4.80;;;1.43;;
5871;SDS011;2962;51.312;7.378;2023-05-07T09:34:20;4.20;;;1.30;;
5871;SDS011;2962;51.312;7.378;2023-05-07T09:36:46;1.47;;;1.47;;
5871;SDS011;2962;51.312;7.378;2023-05-07T09:39:12;2.10;;;1.73;;
5871;SDS011;2962;51.312;7.378;2023-05-07T09:41:44;2.00;;;1.53;;
5871;SDS011;2962;51.312;7.378;2023-05-07T09:44:11;2.40;;;1.30;;
5871;SDS011;2962;51.312;7.378;2023-05-07T09:46:36;1.60;;;1.50;;
5871;SDS011;2962;51.312;7.378;2023-05-07T09:49:03;2.53;;;1.90;;
5871;SDS011;2962;51.312;7.378;2023-05-07T09:51:36;2.63;;;1.10;;
5871;SDS011;2962;51.312;7.378;2023-05-07T09:54:10;1.17;;;1.17;;
5871;SDS011;2962;51.312;7.378;2023-05-07T09:56:36;1.10;;;1.00;;
5871;SDS011;2962;51.312;7.378;2023-05-07T09:59:03;2.40;;;1.00;;
5871;SDS011;2962;51.312;7.378;2023-05-07T10:01:31;0.87;;;0.87;;
5871;SDS011;2962;51.312;7.378;2023-05-07T10:03:57;4.33;;;1.07;;
5871;SDS011;2962;51.312;7.378;2023-05-07T10:06:24;1.30;;;1.20;;
5871;SDS011;2962;51.312;7.378;2023-05-07T10:08:50;2.37;;;1.00;;
5871;SDS011;2962;51.312;7.378;2023-05-07T10:11:17;1.77;;;1.37;;
5871;SDS011;2962;51.312;7.378;2023-05-07T10:13:42;1.90;;;1.80;;
5871;SDS011;2962;51.312;7.378;2023-05-07T10:16:08;2.93;;;1.40;;
5871;SDS011;2962;51.312;7.378;2023-05-07T10:18:34;1.30;;;1.30;;
5871;SDS011;2962;51.312;7.378;2023-05-07T10:21:07;1.10;;;1.10;;
5871;SDS011;2962;51.312;7.378;2023-05-07T10:23:36;2.53;;;1.30;;
5871;SDS011;2962;51.312;7.378;2023-05-07T10:26:03;1.17;;;1.17;;
5871;SDS011;2962;51.312;7.378;2023-05-07T10:28:30;1.70;;;1.60;;
5871;SDS011;2962;51.312;7.378;2023-05-07T10:33:43;1.33;;;0.97;;
5871;SDS011;2962;51.312;7.378;2023-05-07T10:36:11;2.73;;;1.70;;
5871;SDS011;2962;51.312;7.378;2023-05-07T10:38:37;1.20;;;1.10;;
5871;SDS011;2962;51.312;7.378;2023-05-07T10:41:04;2.50;;;1.40;;
5871;SDS011;2962;51.312;7.378;2023-05-07T10:43:40;1.20;;;1.20;;
5871;SDS011;2962;51.312;7.378;2023-05-07T10:51:23;1.67;;;1.57;;
5871;SDS011;2962;51.312;7.378;2023-05-07T10:53:54;1.10;;;1.10;;
5871;SDS011;2962;51.312;7.378;2023-05-07T10:56:34;4.43;;;1.23;;
5871;SDS011;2962;51.312;7.378;2023-05-07T10:59:29;1.30;;;1.20;;
5871;SDS011;2962;51.312;7.378;2023-05-07T11:04:28;1.27;;;1.10;;
5871;SDS011;2962;51.312;7.378;2023-05-07T11:09:53;1.73;;;1.63;;
5871;SDS011;2962;51.312;7.378;2023-05-07T11:12:15;1.70;;;1.60;;
5871;SDS011;2962;51.312;7.378;2023-05-07T11:17:07;3.57;;;1.90;;
5871;SDS011;2962;51.312;7.378;2023-05-07T11:19:51;4.23;;;1.30;;
5871;SDS011;2962;51.312;7.378;2023-05-07T11:24:57;4.23;;;1.47;;
5871;SDS011;2962;51.312;7.378;2023-05-07T11:27:27;2.93;;;1.40;;
5871;SDS011;2962;51.312;7.378;2023-05-07T11:29:54;4.03;;;1.83;;
5871;SDS011;2962;51.312;7.378;2023-05-07T11:32:23;1.40;;;1.40;;
5871;SDS011;2962;51.312;7.378;2023-05-07T11:34:52;2.03;;;1.80;;
5871;SDS011;2962;51.312;7.378;2023-05-07T11:37:18;2.50;;;2.30;;
5871;SDS011;2962;51.312;7.378;2023-05-07T11:39:44;2.73;;;2.73;;
5871;SDS011;2962;51.312;7.378;2023-05-07T11:42:27;2.27;;;2.17;;
5871;SDS011;2962;51.312;7.378;2023-05-07T11:44:53;3.30;;;2.93;;
5871;SDS011;2962;51.312;7.378;2023-05-07T11:47:18;2.90;;;2.33;;
5871;SDS011;2962;51.312;7.378;2023-05-07T11:49:48;2.20;;;2.10;;
5871;SDS011;2962;51.312;7.378;2023-05-07T11:52:14;2.17;;;2.17;;
5871;SDS011;2962;51.312;7.378;2023-05-07T11:54:41;2.57;;;2.47;;
5871;SDS011;2962;51.312;7.378;2023-05-07T11:57:06;2.40;;;2.30;;
5871;SDS011;2962;51.312;7.378;2023-05-07T12:00:15;1.97;;;1.87;;
5871;SDS011;2962;51.312;7.378;2023-05-07T12:02:22;1.70;;;1.70;;
5871;SDS011;2962;51.312;7.378;2023-05-07T12:04:47;5.70;;;2.27;;
5871;SDS011;2962;51.312;7.378;2023-05-07T12:07:15;2.30;;;2.20;;
5871;SDS011;2962;51.312;7.378;2023-05-07T12:09:42;6.23;;;2.80;;
5871;SDS011;2962;51.312;7.378;2023-05-07T12:12:08;3.00;;;2.87;;
5871;SDS011;2962;51.312;7.378;2023-05-07T12:14:37;5.20;;;2.70;;
5871;SDS011;2962;51.312;7.378;2023-05-07T12:17:06;3.20;;;3.10;;
5871;SDS011;2962;51.312;7.378;2023-05-07T12:19:32;3.30;;;3.20;;
5871;SDS011;2962;51.312;7.378;2023-05-07T12:21:59;2.83;;;2.63;;
5871;SDS011;2962;51.312;7.378;2023-05-07T12:24:24;6.00;;;2.80;;
5871;SDS011;2962;51.312;7.378;2023-05-07T12:26:50;3.57;;;3.27;;
5871;SDS011;2962;51.312;7.378;2023-05-07T12:29:15;3.53;;;3.10;;
5871;SDS011;2962;51.312;7.378;2023-05-07T12:31:41;4.50;;;3.63;;
5871;SDS011;2962;51.312;7.378;2023-05-07T12:34:07;5.60;;;4.03;;
5871;SDS011;2962;51.312;7.378;2023-05-07T12:36:38;4.37;;;4.03;;
5871;SDS011;2962;51.312;7.378;2023-05-07T12:39:08;4.27;;;4.07;;
5871;SDS011;2962;51.312;7.378;2023-05-07T12:41:55;3.90;;;3.80;;
5871;SDS011;2962;51.312;7.378;2023-05-07T12:44:29;5.65;;;5.13;;
5871;SDS011;2962;51.312;7.378;2023-05-07T12:46:56;9.93;;;4.97;;
5871;SDS011;2962;51.312;7.378;2023-05-07T12:49:22;9.00;;;6.47;;
5871;SDS011;2962;51.312;7.378;2023-05-07T12:51:48;7.90;;;6.97;;
5871;SDS011;2962;51.312;7.378;2023-05-07T12:54:27;7.90;;;6.20;;
5871;SDS011;2962;51.312;7.378;2023-05-07T12:57:00;7.10;;;6.53;;
5871;SDS011;2962;51.312;7.378;2023-05-07T12:59:40;9.33;;;6.80;;
5871;SDS011;2962;51.312;7.378;2023-05-07T13:02:06;6.07;;;5.60;;
5871;SDS011;2962;51.312;7.378;2023-05-07T13:04:32;5.60;;;5.10;;
5871;SDS011;2962;51.312;7.378;2023-05-07T13:06:58;5.03;;;4.73;;
5871;SDS011;2962;51.312;7.378;2023-05-07T13:09:24;5.80;;;5.37;;
5871;SDS011;2962;51.312;7.378;2023-05-07T13:11:50;10.63;;;6.00;;
5871;SDS011;2962;51.312;7.378;2023-05-07T13:14:15;5.13;;;4.73;;
5871;SDS011;2962;51.312;7.378;2023-05-07T13:16:40;5.73;;;5.33;;
5871;SDS011;2962;51.312;7.378;2023-05-07T13:19:06;4.27;;;4.03;;
5871;SDS011;2962;51.312;7.378;2023-05-07T13:21:31;7.80;;;4.07;;
5871;SDS011;2962;51.312;7.378;2023-05-07T13:23:57;4.43;;;3.67;;
5871;SDS011;2962;51.312;7.378;2023-05-07T13:26:25;4.07;;;3.77;;
5871;SDS011;2962;51.312;7.378;2023-05-07T13:28:51;3.47;;;3.37;;
5871;SDS011;2962;51.312;7.378;2023-05-07T13:31:17;4.30;;;4.07;;
5871;SDS011;2962;51.312;7.378;2023-05-07T13:33:42;4.93;;;4.60;;
5871;SDS011;2962;51.312;7.378;2023-05-07T13:36:07;4.80;;;4.60;;
5871;SDS011;2962;51.312;7.378;2023-05-07T13:38:33;5.70;;;5.20;;
5871;SDS011;2962;51.312;7.378;2023-05-07T13:40:58;7.27;;;6.77;;
5871;SDS011;2962;51.312;7.378;2023-05-07T13:43:24;6.77;;;6.37;;
5871;SDS011;2962;51.312;7.378;2023-05-07T13:45:49;7.17;;;6.73;;
5871;SDS011;2962;51.312;7.378;2023-05-07T13:48:15;9.50;;;8.50;;
5871;SDS011;2962;51.312;7.378;2023-05-07T13:50:40;9.30;;;8.50;;
5871;SDS011;2962;51.312;7.378;2023-05-07T13:53:05;9.73;;;9.00;;
5871;SDS011;2962;51.312;7.378;2023-05-07T13:55:31;12.20;;;10.43;;
5871;SDS011;2962;51.312;7.378;2023-05-07T13:57:57;14.20;;;12.83;;
5871;SDS011;2962;51.312;7.378;2023-05-07T14:00:24;16.13;;;12.70;;
5871;SDS011;2962;51.312;7.378;2023-05-07T14:02:50;13.00;;;11.90;;
5871;SDS011;2962;51.312;7.378;2023-05-07T14:05:15;14.97;;;13.47;;
5871;SDS011;2962;51.312;7.378;2023-05-07T14:07:40;15.10;;;13.70;;
5871;SDS011;2962;51.312;7.378;2023-05-07T14:10:06;12.33;;;10.87;;
5871;SDS011;2962;51.312;7.378;2023-05-07T14:12:32;10.87;;;9.80;;
5871;SDS011;2962;51.312;7.378;2023-05-07T14:14:57;11.27;;;10.17;;
5871;SDS011;2962;51.312;7.378;2023-05-07T14:17:23;9.60;;;8.63;;
5871;SDS011;2962;51.312;7.378;2023-05-07T14:19:50;9.50;;;8.67;;
5871;SDS011;2962;51.312;7.378;2023-05-07T14:22:15;6.87;;;6.40;;
5871;SDS011;2962;51.312;7.378;2023-05-07T14:24:40;8.57;;;7.63;;
5871;SDS011;2962;51.312;7.378;2023-05-07T14:27:06;7.47;;;6.67;;
5871;SDS011;2962;51.312;7.378;2023-05-07T14:29:31;6.70;;;6.07;;
5871;SDS011;2962;51.312;7.378;2023-05-07T14:31:57;6.60;;;5.90;;
5871;SDS011;2962;51.312;7.378;2023-05-07T14:34:22;5.63;;;5.33;;
5871;SDS011;2962;51.312;7.378;2023-05-07T14:36:47;6.27;;;5.87;;
5871;SDS011;2962;51.312;7.378;2023-05-07T14:39:13;4.73;;;4.53;;
5871;SDS011;2962;51.312;7.378;2023-05-07T14:41:38;5.30;;;4.90;;
5871;SDS011;2962;51.312;7.378;2023-05-07T14:44:03;5.10;;;4.80;;
5871;SDS011;2962;51.312;7.378;2023-05-07T14:46:29;5.03;;;4.80;;
5871;SDS011;2962;51.312;7.378;2023-05-07T14:48:54;7.53;;;5.10;;
5871;SDS011;2962;51.312;7.378;2023-05-07T14:51:20;5.23;;;4.67;;
5871;SDS011;2962;51.312;7.378;2023-05-07T14:53:45;5.73;;;5.30;;
5871;SDS011;2962;51.312;7.378;2023-05-07T14:56:11;4.57;;;4.37;;
5871;SDS011;2962;51.312;7.378;2023-05-07T14:58:36;5.27;;;4.97;;
5871;SDS011;2962;51.312;7.378;2023-05-07T15:01:02;6.53;;;5.63;;
5871;SDS011;2962;51.312;7.378;2023-05-07T15:03:27;6.57;;;5.13;;
5871;SDS011;2962;51.312;7.378;2023-05-07T15:05:53;5.67;;;5.40;;
5871;SDS011;2962;51.312;7.378;2023-05-07T15:08:18;6.97;;;6.27;;
5871;SDS011;2962;51.312;7.378;2023-05-07T15:10:43;7.70;;;7.00;;
5871;SDS011;2962;51.312;7.378;2023-05-07T15:13:09;7.33;;;6.60;;
5871;SDS011;2962;51.312;7.378;2023-05-07T15:15:36;7.10;;;6.70;;
5871;SDS011;2962;51.312;7.378;2023-05-07T15:18:01;7.33;;;6.63;;
5871;SDS011;2962;51.312;7.378;2023-05-07T15:20:27;8.90;;;7.80;;
5871;SDS011;2962;51.312;7.378;2023-05-07T15:22:53;8.23;;;7.73;;
5871;SDS011;2962;51.312;7.378;2023-05-07T15:25:18;11.03;;;6.77;;
5871;SDS011;2962;51.312;7.378;2023-05-07T15:27:44;8.07;;;7.43;;